sensor_id;sensor_type;location;lat;lon;timestamp;P1;durP1;ratioP1;P2;durP2;ratioP2
17365;SDS011;8800;50.118;9.900;2022-12-11T00:00:18;36.70;;;11.77;;
17365;SDS011;8800;50.118;9.900;2022-12-11T00:02:45;25.38;;;9.75;;
17365;SDS011;8800;50.118;9.900;2022-12-11T00:05:11;23.15;;;9.50;;
17365;SDS011;8800;50.118;9.900;2022-12-11T00:07:38;27.95;;;11.05;;
17365;SDS011;8800;50.118;9.900;2022-12-11T00:10:05;28.42;;;11.75;;
17365;SDS011;8800;50.118;9.900;2022-12-11T00:12:33;27.85;;;12.00;;
17365;SDS011;8800;50.118;9.900;2022-12-11T00:15:00;32.25;;;12.65;;
17365;SDS011;8800;50.118;9.900;2022-12-11T00:17:26;28.40;;;11.60;;
17365;SDS011;8800;50.118;9.900;2022-12-11T00:19:53;37.42;;;12.98;;
17365;SDS011;8800;50.118;9.900;2022-12-11T00:22:20;32.45;;;11.90;;
17365;SDS011;8800;50.118;9.900;2022-12-11T00:24:46;32.55;;;11.57;;
17365;SDS011;8800;50.118;9.900;2022-12-11T00:27:13;33.75;;;12.23;;
17365;SDS011;8800;50.118;9.900;2022-12-11T00:29:41;31.08;;;11.32;;
17365;SDS011;8800;50.118;9.900;2022-12-11T00:32:07;41.20;;;13.85;;
17365;SDS011;8800;50.118;9.900;2022-12-11T00:34:34;39.47;;;13.18;;
17365;SDS011;8800;50.118;9.900;2022-12-11T00:37:01;40.80;;;13.35;;
17365;SDS011;8800;50.118;9.900;2022-12-11T00:39:28;39.88;;;12.38;;
17365;SDS011;8800;50.118;9.900;2022-12-11T00:41:54;31.35;;;11.30;;
17365;SDS011;8800;50.118;9.900;2022-12-11T00:44:22;26.95;;;9.75;;
17365;SDS011;8800;50.118;9.900;2022-12-11T00:46:50;27.20;;;10.02;;
17365;SDS011;8800;50.118;9.900;2022-12-11T00:49:17;28.80;;;9.43;;
17365;SDS011;8800;50.118;9.900;2022-12-11T00:51:43;22.90;;;9.23;;
17365;SDS011;8800;50.118;9.900;2022-12-11T00:54:10;28.23;;;9.52;;
17365;SDS011;8800;50.118;9.900;2022-12-11T00:56:37;29.15;;;9.32;;
17365;SDS011;8800;50.118;9.900;2022-12-11T00:59:03;33.45;;;11.75;;
17365;SDS011;8800;50.118;9.900;2022-12-11T01:01:30;41.20;;;14.07;;
17365;SDS011;8800;50.118;9.900;2022-12-11T01:03:59;74.38;;;21.20;;
17365;SDS011;8800;50.118;9.900;2022-12-11T01:06:26;67.22;;;21.35;;
17365;SDS011;8800;50.118;9.900;2022-12-11T01:08:53;52.20;;;15.93;;
17365;SDS011;8800;50.118;9.900;2022-12-11T01:11:34;46.90;;;15.18;;
17365;SDS011;8800;50.118;9.900;2022-12-11T01:14:00;53.58;;;15.73;;
17365;SDS011;8800;50.118;9.900;2022-12-11T01:16:27;40.85;;;14.32;;
17365;SDS011;8800;50.118;9.900;2022-12-11T01:18:54;32.38;;;11.65;;
17365;SDS011;8800;50.118;9.900;2022-12-11T01:21:22;32.35;;;11.43;;
17365;SDS011;8800;50.118;9.900;2022-12-11T01:23:49;33.90;;;11.18;;
17365;SDS011;8800;50.118;9.900;2022-12-11T01:26:16;37.00;;;13.05;;
17365;SDS011;8800;50.118;9.900;2022-12-11T01:28:42;34.83;;;12.32;;
17365;SDS011;8800;50.118;9.900;2022-12-11T01:31:10;32.70;;;11.02;;
17365;SDS011;8800;50.118;9.900;2022-12-11T01:33:36;28.38;;;11.10;;
17365;SDS011;8800;50.118;9.900;2022-12-11T01:36:05;28.90;;;10.20;;
17365;SDS011;8800;50.118;9.900;2022-12-11T01:38:33;25.10;;;10.25;;
17365;SDS011;8800;50.118;9.900;2022-12-11T01:41:00;26.35;;;9.48;;
17365;SDS011;8800;50.118;9.900;2022-12-11T01:43:27;24.58;;;9.90;;
17365;SDS011;8800;50.118;9.900;2022-12-11T01:45:53;23.73;;;9.13;;
17365;SDS011;8800;50.118;9.900;2022-12-11T01:48:20;30.73;;;11.23;;
17365;SDS011;8800;50.118;9.900;2022-12-11T01:50:48;30.20;;;10.88;;
17365;SDS011;8800;50.118;9.900;2022-12-11T01:53:16;29.45;;;9.75;;
17365;SDS011;8800;50.118;9.900;2022-12-11T01:55:45;25.60;;;9.90;;
17365;SDS011;8800;50.118;9.900;2022-12-11T01:58:11;22.58;;;9.45;;
17365;SDS011;8800;50.118;9.900;2022-12-11T02:00:38;25.83;;;10.73;;
17365;SDS011;8800;50.118;9.900;2022-12-11T02:03:05;22.98;;;9.43;;
17365;SDS011;8800;50.118;9.900;2022-12-11T02:05:32;29.27;;;9.75;;
17365;SDS011;8800;50.118;9.900;2022-12-11T02:07:59;65.38;;;20.13;;
17365;SDS011;8800;50.118;9.900;2022-12-11T02:10:27;60.15;;;19.55;;
17365;SDS011;8800;50.118;9.900;2022-12-11T02:12:59;37.05;;;12.65;;
17365;SDS011;8800;50.118;9.900;2022-12-11T02:15:30;34.97;;;11.05;;
17365;SDS011;8800;50.118;9.900;2022-12-11T02:18:04;34.85;;;12.93;;
17365;SDS011;8800;50.118;9.900;2022-12-11T02:20:33;29.83;;;10.40;;
17365;SDS011;8800;50.118;9.900;2022-12-11T02:23:18;26.48;;;9.27;;
17365;SDS011;8800;50.118;9.900;2022-12-11T02:25:50;22.77;;;8.35;;
17365;SDS011;8800;50.118;9.900;2022-12-11T02:28:21;16.83;;;7.68;;
17365;SDS011;8800;50.118;9.900;2022-12-11T02:30:49;20.15;;;8.13;;
17365;SDS011;8800;50.118;9.900;2022-12-11T02:33:17;21.20;;;8.68;;
17365;SDS011;8800;50.118;9.900;2022-12-11T02:35:46;22.30;;;8.48;;
17365;SDS011;8800;50.118;9.900;2022-12-11T02:38:15;25.75;;;9.05;;
17365;SDS011;8800;50.118;9.900;2022-12-11T02:40:43;29.33;;;10.80;;
17365;SDS011;8800;50.118;9.900;2022-12-11T02:43:10;29.55;;;9.75;;
17365;SDS011;8800;50.118;9.900;2022-12-11T02:45:40;20.05;;;7.38;;
17365;SDS011;8800;50.118;9.900;2022-12-11T02:48:08;20.30;;;8.18;;
17365;SDS011;8800;50.118;9.900;2022-12-11T02:50:36;29.45;;;10.63;;
17365;SDS011;8800;50.118;9.900;2022-12-11T02:53:04;24.33;;;9.48;;
17365;SDS011;8800;50.118;9.900;2022-12-11T02:55:32;23.27;;;9.60;;
17365;SDS011;8800;50.118;9.900;2022-12-11T02:58:01;21.33;;;8.32;;
17365;SDS011;8800;50.118;9.900;2022-12-11T03:00:29;19.45;;;8.07;;
17365;SDS011;8800;50.118;9.900;2022-12-11T03:02:57;24.77;;;9.15;;
17365;SDS011;8800;50.118;9.900;2022-12-11T03:05:24;18.77;;;8.45;;
17365;SDS011;8800;50.118;9.900;2022-12-11T03:07:53;21.50;;;9.15;;
17365;SDS011;8800;50.118;9.900;2022-12-11T03:10:20;24.75;;;9.43;;
17365;SDS011;8800;50.118;9.900;2022-12-11T03:12:48;21.95;;;8.02;;
17365;SDS011;8800;50.118;9.900;2022-12-11T03:15:16;22.65;;;8.38;;
17365;SDS011;8800;50.118;9.900;2022-12-11T03:17:46;22.58;;;8.60;;
17365;SDS011;8800;50.118;9.900;2022-12-11T03:20:20;21.98;;;8.73;;
17365;SDS011;8800;50.118;9.900;2022-12-11T03:22:52;23.45;;;7.90;;
17365;SDS011;8800;50.118;9.900;2022-12-11T03:25:22;24.95;;;8.80;;
17365;SDS011;8800;50.118;9.900;2022-12-11T03:27:52;18.85;;;7.75;;
17365;SDS011;8800;50.118;9.900;2022-12-11T03:30:22;21.75;;;7.43;;
17365;SDS011;8800;50.118;9.900;2022-12-11T03:32:50;18.25;;;7.13;;
17365;SDS011;8800;50.118;9.900;2022-12-11T03:35:22;19.58;;;7.35;;
17365;SDS011;8800;50.118;9.900;2022-12-11T03:37:50;23.70;;;6.88;;
17365;SDS011;8800;50.118;9.900;2022-12-11T03:40:18;20.85;;;8.02;;
17365;SDS011;8800;50.118;9.900;2022-12-11T03:42:47;17.25;;;7.72;;
17365;SDS011;8800;50.118;9.900;2022-12-11T03:45:15;19.45;;;7.72;;
17365;SDS011;8800;50.118;9.900;2022-12-11T03:47:42;19.08;;;6.93;;
17365;SDS011;8800;50.118;9.900;2022-12-11T03:50:10;23.80;;;7.95;;
17365;SDS011;8800;50.118;9.900;2022-12-11T03:52:39;21.42;;;7.85;;
17365;SDS011;8800;50.118;9.900;2022-12-11T03:55:06;20.98;;;7.97;;
17365;SDS011;8800;50.118;9.900;2022-12-11T03:57:34;22.88;;;8.02;;
17365;SDS011;8800;50.118;9.900;2022-12-11T04:00:01;25.42;;;8.15;;
17365;SDS011;8800;50.118;9.900;2022-12-11T04:02:29;22.15;;;8.23;;
17365;SDS011;8800;50.118;9.900;2022-12-11T04:04:55;22.13;;;8.48;;
17365;SDS011;8800;50.118;9.900;2022-12-11T04:07:22;19.15;;;7.75;;
17365;SDS011;8800;50.118;9.900;2022-12-11T04:09:50;19.05;;;7.60;;
17365;SDS011;8800;50.118;9.900;2022-12-11T04:12:17;22.40;;;8.32;;
17365;SDS011;8800;50.118;9.900;2022-12-11T04:14:43;21.83;;;8.18;;
17365;SDS011;8800;50.118;9.900;2022-12-11T04:17:28;18.98;;;7.18;;
17365;SDS011;8800;50.118;9.900;2022-12-11T04:20:13;18.40;;;7.28;;
17365;SDS011;8800;50.118;9.900;2022-12-11T04:22:57;22.35;;;7.10;;
17365;SDS011;8800;50.118;9.900;2022-12-11T04:25:43;19.60;;;7.85;;
17365;SDS011;8800;50.118;9.900;2022-12-11T04:28:09;19.95;;;7.88;;
17365;SDS011;8800;50.118;9.900;2022-12-11T04:30:36;18.92;;;7.15;;
17365;SDS011;8800;50.118;9.900;2022-12-11T04:33:03;16.40;;;6.88;;
17365;SDS011;8800;50.118;9.900;2022-12-11T04:35:30;20.33;;;7.95;;
17365;SDS011;8800;50.118;9.900;2022-12-11T04:37:56;21.05;;;7.75;;
17365;SDS011;8800;50.118;9.900;2022-12-11T04:40:24;19.30;;;7.20;;
17365;SDS011;8800;50.118;9.900;2022-12-11T04:42:52;23.98;;;7.90;;
17365;SDS011;8800;50.118;9.900;2022-12-11T04:45:18;18.30;;;6.63;;
17365;SDS011;8800;50.118;9.900;2022-12-11T04:47:45;20.70;;;7.68;;
17365;SDS011;8800;50.118;9.900;2022-12-11T04:50:13;18.90;;;7.22;;
17365;SDS011;8800;50.118;9.900;2022-12-11T04:52:40;21.10;;;7.32;;
17365;SDS011;8800;50.118;9.900;2022-12-11T04:55:08;19.85;;;7.43;;
17365;SDS011;8800;50.118;9.900;2022-12-11T04:57:35;15.30;;;6.60;;
17365;SDS011;8800;50.118;9.900;2022-12-11T05:00:04;18.00;;;6.85;;
17365;SDS011;8800;50.118;9.900;2022-12-11T05:02:33;25.98;;;9.85;;
17365;SDS011;8800;50.118;9.900;2022-12-11T05:04:59;22.98;;;8.70;;
17365;SDS011;8800;50.118;9.900;2022-12-11T05:07:27;22.48;;;8.55;;
17365;SDS011;8800;50.118;9.900;2022-12-11T05:09:54;20.90;;;8.25;;
17365;SDS011;8800;50.118;9.900;2022-12-11T05:12:20;18.90;;;7.28;;
17365;SDS011;8800;50.118;9.900;2022-12-11T05:14:50;20.95;;;7.93;;
17365;SDS011;8800;50.118;9.900;2022-12-11T05:17:18;27.60;;;9.38;;
17365;SDS011;8800;50.118;9.900;2022-12-11T05:19:45;22.65;;;9.25;;
17365;SDS011;8800;50.118;9.900;2022-12-11T05:22:12;23.08;;;9.63;;
17365;SDS011;8800;50.118;9.900;2022-12-11T05:24:39;21.10;;;8.90;;
17365;SDS011;8800;50.118;9.900;2022-12-11T05:27:05;22.55;;;9.15;;
17365;SDS011;8800;50.118;9.900;2022-12-11T05:29:32;20.90;;;7.75;;
17365;SDS011;8800;50.118;9.900;2022-12-11T05:31:59;23.13;;;8.93;;
17365;SDS011;8800;50.118;9.900;2022-12-11T05:34:27;24.10;;;9.93;;
17365;SDS011;8800;50.118;9.900;2022-12-11T05:36:54;24.50;;;8.63;;
17365;SDS011;8800;50.118;9.900;2022-12-11T05:39:21;23.83;;;8.27;;
17365;SDS011;8800;50.118;9.900;2022-12-11T05:41:48;22.17;;;7.47;;
17365;SDS011;8800;50.118;9.900;2022-12-11T05:44:15;24.30;;;8.68;;
17365;SDS011;8800;50.118;9.900;2022-12-11T05:46:42;22.27;;;8.60;;
17365;SDS011;8800;50.118;9.900;2022-12-11T05:49:08;20.25;;;7.95;;
17365;SDS011;8800;50.118;9.900;2022-12-11T05:51:37;22.45;;;8.10;;
17365;SDS011;8800;50.118;9.900;2022-12-11T05:54:05;19.63;;;7.22;;
17365;SDS011;8800;50.118;9.900;2022-12-11T05:56:32;24.23;;;9.15;;
17365;SDS011;8800;50.118;9.900;2022-12-11T05:59:00;23.92;;;8.63;;
17365;SDS011;8800;50.118;9.900;2022-12-11T06:01:28;23.95;;;8.68;;
17365;SDS011;8800;50.118;9.900;2022-12-11T06:03:55;25.73;;;8.73;;
17365;SDS011;8800;50.118;9.900;2022-12-11T06:06:22;26.33;;;8.48;;
17365;SDS011;8800;50.118;9.900;2022-12-11T06:08:51;21.77;;;8.75;;
17365;SDS011;8800;50.118;9.900;2022-12-11T06:11:18;24.55;;;9.05;;
17365;SDS011;8800;50.118;9.900;2022-12-11T06:13:45;25.27;;;9.25;;
17365;SDS011;8800;50.118;9.900;2022-12-11T06:16:12;29.67;;;10.63;;
17365;SDS011;8800;50.118;9.900;2022-12-11T06:18:39;36.00;;;10.52;;
17365;SDS011;8800;50.118;9.900;2022-12-11T06:21:11;34.17;;;11.07;;
17365;SDS011;8800;50.118;9.900;2022-12-11T06:23:37;37.30;;;12.40;;
17365;SDS011;8800;50.118;9.900;2022-12-11T06:26:06;30.95;;;10.88;;
17365;SDS011;8800;50.118;9.900;2022-12-11T06:28:33;30.73;;;11.13;;
17365;SDS011;8800;50.118;9.900;2022-12-11T06:31:00;33.55;;;11.98;;
17365;SDS011;8800;50.118;9.900;2022-12-11T06:33:27;33.47;;;11.43;;
17365;SDS011;8800;50.118;9.900;2022-12-11T06:35:54;33.30;;;12.90;;
17365;SDS011;8800;50.118;9.900;2022-12-11T06:38:21;40.10;;;13.43;;
17365;SDS011;8800;50.118;9.900;2022-12-11T06:40:53;38.08;;;13.02;;
17365;SDS011;8800;50.118;9.900;2022-12-11T06:43:21;33.88;;;12.73;;
17365;SDS011;8800;50.118;9.900;2022-12-11T06:45:48;26.10;;;10.18;;
17365;SDS011;8800;50.118;9.900;2022-12-11T06:48:16;21.13;;;8.82;;
17365;SDS011;8800;50.118;9.900;2022-12-11T06:50:45;24.85;;;9.63;;
17365;SDS011;8800;50.118;9.900;2022-12-11T06:53:13;24.67;;;9.57;;
17365;SDS011;8800;50.118;9.900;2022-12-11T06:55:40;27.63;;;11.13;;
17365;SDS011;8800;50.118;9.900;2022-12-11T06:58:07;25.50;;;10.52;;
17365;SDS011;8800;50.118;9.900;2022-12-11T07:00:37;20.40;;;9.18;;
17365;SDS011;8800;50.118;9.900;2022-12-11T07:03:08;30.08;;;12.30;;
17365;SDS011;8800;50.118;9.900;2022-12-11T07:05:35;28.98;;;12.20;;
17365;SDS011;8800;50.118;9.900;2022-12-11T07:08:03;29.55;;;12.02;;
17365;SDS011;8800;50.118;9.900;2022-12-11T07:10:31;31.08;;;11.77;;
17365;SDS011;8800;50.118;9.900;2022-12-11T07:12:57;34.10;;;12.65;;
17365;SDS011;8800;50.118;9.900;2022-12-11T07:15:24;32.17;;;12.50;;
17365;SDS011;8800;50.118;9.900;2022-12-11T07:17:52;28.23;;;12.02;;
17365;SDS011;8800;50.118;9.900;2022-12-11T07:20:19;29.50;;;12.18;;
17365;SDS011;8800;50.118;9.900;2022-12-11T07:22:45;41.35;;;15.65;;
17365;SDS011;8800;50.118;9.900;2022-12-11T07:25:12;35.28;;;13.02;;
17365;SDS011;8800;50.118;9.900;2022-12-11T07:27:39;34.58;;;14.25;;
17365;SDS011;8800;50.118;9.900;2022-12-11T07:30:12;35.58;;;13.00;;
17365;SDS011;8800;50.118;9.900;2022-12-11T07:32:39;29.23;;;10.75;;
17365;SDS011;8800;50.118;9.900;2022-12-11T07:35:09;27.85;;;11.05;;
17365;SDS011;8800;50.118;9.900;2022-12-11T07:37:38;33.80;;;12.38;;
17365;SDS011;8800;50.118;9.900;2022-12-11T07:40:05;25.95;;;9.25;;
17365;SDS011;8800;50.118;9.900;2022-12-11T07:42:33;22.58;;;8.80;;
17365;SDS011;8800;50.118;9.900;2022-12-11T07:45:03;37.25;;;13.80;;
17365;SDS011;8800;50.118;9.900;2022-12-11T07:47:34;38.35;;;13.02;;
17365;SDS011;8800;50.118;9.900;2022-12-11T07:50:01;31.50;;;10.57;;
17365;SDS011;8800;50.118;9.900;2022-12-11T07:52:33;22.30;;;9.10;;
17365;SDS011;8800;50.118;9.900;2022-12-11T07:55:06;18.83;;;8.13;;
17365;SDS011;8800;50.118;9.900;2022-12-11T07:57:36;21.67;;;8.57;;
17365;SDS011;8800;50.118;9.900;2022-12-11T08:00:03;21.17;;;9.30;;
17365;SDS011;8800;50.118;9.900;2022-12-11T08:02:30;24.73;;;9.70;;
17365;SDS011;8800;50.118;9.900;2022-12-11T08:05:01;23.42;;;9.60;;
17365;SDS011;8800;50.118;9.900;2022-12-11T08:07:34;35.65;;;13.02;;
17365;SDS011;8800;50.118;9.900;2022-12-11T08:10:03;42.42;;;16.42;;
17365;SDS011;8800;50.118;9.900;2022-12-11T08:12:31;37.70;;;15.25;;
17365;SDS011;8800;50.118;9.900;2022-12-11T08:14:57;29.35;;;11.50;;
17365;SDS011;8800;50.118;9.900;2022-12-11T08:17:25;30.90;;;10.55;;
17365;SDS011;8800;50.118;9.900;2022-12-11T08:19:56;35.83;;;12.10;;
17365;SDS011;8800;50.118;9.900;2022-12-11T08:22:24;33.05;;;11.52;;
17365;SDS011;8800;50.118;9.900;2022-12-11T08:24:52;28.67;;;11.25;;
17365;SDS011;8800;50.118;9.900;2022-12-11T08:27:26;41.80;;;12.57;;
17365;SDS011;8800;50.118;9.900;2022-12-11T08:29:55;30.98;;;11.02;;
17365;SDS011;8800;50.118;9.900;2022-12-11T08:32:22;33.50;;;11.32;;
17365;SDS011;8800;50.118;9.900;2022-12-11T08:34:49;28.05;;;11.30;;
17365;SDS011;8800;50.118;9.900;2022-12-11T08:37:16;33.70;;;11.18;;
17365;SDS011;8800;50.118;9.900;2022-12-11T08:39:43;38.15;;;12.57;;
17365;SDS011;8800;50.118;9.900;2022-12-11T08:42:12;28.67;;;10.50;;
17365;SDS011;8800;50.118;9.900;2022-12-11T08:44:39;25.30;;;10.98;;
17365;SDS011;8800;50.118;9.900;2022-12-11T08:47:08;41.63;;;14.77;;
17365;SDS011;8800;50.118;9.900;2022-12-11T08:49:35;28.85;;;11.02;;
17365;SDS011;8800;50.118;9.900;2022-12-11T08:52:01;23.08;;;9.10;;
17365;SDS011;8800;50.118;9.900;2022-12-11T08:54:28;15.93;;;6.43;;
17365;SDS011;8800;50.118;9.900;2022-12-11T08:56:55;20.27;;;8.40;;
17365;SDS011;8800;50.118;9.900;2022-12-11T08:59:29;19.63;;;8.68;;
17365;SDS011;8800;50.118;9.900;2022-12-11T09:01:56;22.80;;;9.50;;
17365;SDS011;8800;50.118;9.900;2022-12-11T09:04:23;23.10;;;10.00;;
17365;SDS011;8800;50.118;9.900;2022-12-11T09:06:49;26.13;;;9.18;;
17365;SDS011;8800;50.118;9.900;2022-12-11T09:09:16;21.48;;;8.38;;
17365;SDS011;8800;50.118;9.900;2022-12-11T09:11:42;23.58;;;8.48;;
17365;SDS011;8800;50.118;9.900;2022-12-11T09:14:09;23.20;;;8.48;;
17365;SDS011;8800;50.118;9.900;2022-12-11T09:19:21;21.23;;;8.63;;
17365;SDS011;8800;50.118;9.900;2022-12-11T09:21:47;24.20;;;9.30;;
17365;SDS011;8800;50.118;9.900;2022-12-11T09:24:14;25.52;;;8.95;;
17365;SDS011;8800;50.118;9.900;2022-12-11T09:26:41;20.13;;;8.68;;
17365;SDS011;8800;50.118;9.900;2022-12-11T09:29:07;30.00;;;10.63;;
17365;SDS011;8800;50.118;9.900;2022-12-11T09:31:34;32.38;;;12.32;;
17365;SDS011;8800;50.118;9.900;2022-12-11T09:34:02;30.05;;;10.82;;
17365;SDS011;8800;50.118;9.900;2022-12-11T09:36:30;32.58;;;11.65;;
17365;SDS011;8800;50.118;9.900;2022-12-11T09:38:58;22.80;;;9.40;;
17365;SDS011;8800;50.118;9.900;2022-12-11T09:46:53;22.60;;;8.35;;
17365;SDS011;8800;50.118;9.900;2022-12-11T09:49:21;20.08;;;8.65;;
17365;SDS011;8800;50.118;9.900;2022-12-11T09:51:52;26.95;;;10.32;;
17365;SDS011;8800;50.118;9.900;2022-12-11T09:54:22;23.40;;;9.73;;
17365;SDS011;8800;50.118;9.900;2022-12-11T09:56:49;23.92;;;9.13;;
17365;SDS011;8800;50.118;9.900;2022-12-11T09:59:20;18.60;;;6.80;;
17365;SDS011;8800;50.118;9.900;2022-12-11T10:01:48;17.30;;;6.63;;
17365;SDS011;8800;50.118;9.900;2022-12-11T10:04:17;21.38;;;7.20;;
17365;SDS011;8800;50.118;9.900;2022-12-11T10:06:47;24.35;;;9.10;;
17365;SDS011;8800;50.118;9.900;2022-12-11T10:09:18;23.90;;;9.85;;
17365;SDS011;8800;50.118;9.900;2022-12-11T10:12:00;17.20;;;7.72;;
17365;SDS011;8800;50.118;9.900;2022-12-11T10:14:33;15.50;;;6.28;;
17365;SDS011;8800;50.118;9.900;2022-12-11T10:17:03;18.25;;;8.30;;
17365;SDS011;8800;50.118;9.900;2022-12-11T10:19:32;15.23;;;6.80;;
17365;SDS011;8800;50.118;9.900;2022-12-11T10:21:59;15.35;;;6.20;;
17365;SDS011;8800;50.118;9.900;2022-12-11T10:24:28;11.40;;;4.93;;
17365;SDS011;8800;50.118;9.900;2022-12-11T10:27:00;12.80;;;5.68;;
17365;SDS011;8800;50.118;9.900;2022-12-11T10:29:34;16.85;;;6.70;;
17365;SDS011;8800;50.118;9.900;2022-12-11T10:32:01;19.23;;;7.63;;
17365;SDS011;8800;50.118;9.900;2022-12-11T10:34:30;27.17;;;9.40;;
17365;SDS011;8800;50.118;9.900;2022-12-11T10:36:58;17.80;;;6.88;;
17365;SDS011;8800;50.118;9.900;2022-12-11T10:39:25;17.83;;;7.88;;
17365;SDS011;8800;50.118;9.900;2022-12-11T10:41:54;18.70;;;7.93;;
17365;SDS011;8800;50.118;9.900;2022-12-11T10:44:21;19.10;;;7.80;;
17365;SDS011;8800;50.118;9.900;2022-12-11T10:47:00;16.70;;;6.38;;
17365;SDS011;8800;50.118;9.900;2022-12-11T10:49:30;21.58;;;8.30;;
17365;SDS011;8800;50.118;9.900;2022-12-11T10:51:57;17.17;;;7.18;;
17365;SDS011;8800;50.118;9.900;2022-12-11T10:54:29;13.60;;;6.13;;
17365;SDS011;8800;50.118;9.900;2022-12-11T10:56:58;14.70;;;6.47;;
17365;SDS011;8800;50.118;9.900;2022-12-11T10:59:29;16.38;;;6.78;;
17365;SDS011;8800;50.118;9.900;2022-12-11T11:01:56;15.85;;;6.13;;
17365;SDS011;8800;50.118;9.900;2022-12-11T11:04:26;20.48;;;8.02;;
17365;SDS011;8800;50.118;9.900;2022-12-11T11:07:01;15.32;;;6.68;;
17365;SDS011;8800;50.118;9.900;2022-12-11T11:09:29;26.10;;;10.77;;
17365;SDS011;8800;50.118;9.900;2022-12-11T11:11:56;17.58;;;7.97;;
17365;SDS011;8800;50.118;9.900;2022-12-11T11:14:24;18.98;;;7.80;;
17365;SDS011;8800;50.118;9.900;2022-12-11T11:16:51;22.83;;;8.13;;
17365;SDS011;8800;50.118;9.900;2022-12-11T11:19:22;14.50;;;6.53;;
17365;SDS011;8800;50.118;9.900;2022-12-11T11:21:50;15.63;;;6.75;;
17365;SDS011;8800;50.118;9.900;2022-12-11T11:24:20;14.27;;;6.18;;
17365;SDS011;8800;50.118;9.900;2022-12-11T11:26:48;23.77;;;8.18;;
17365;SDS011;8800;50.118;9.900;2022-12-11T11:29:20;22.75;;;8.82;;
17365;SDS011;8800;50.118;9.900;2022-12-11T11:31:49;16.10;;;6.10;;
17365;SDS011;8800;50.118;9.900;2022-12-11T11:34:17;12.30;;;5.22;;
17365;SDS011;8800;50.118;9.900;2022-12-11T11:36:45;13.55;;;5.32;;
17365;SDS011;8800;50.118;9.900;2022-12-11T11:39:22;10.75;;;5.10;;
17365;SDS011;8800;50.118;9.900;2022-12-11T11:41:52;11.18;;;4.95;;
17365;SDS011;8800;50.118;9.900;2022-12-11T11:44:22;12.93;;;4.88;;
17365;SDS011;8800;50.118;9.900;2022-12-11T11:46:53;10.98;;;5.35;;
17365;SDS011;8800;50.118;9.900;2022-12-11T11:49:22;14.73;;;5.55;;
17365;SDS011;8800;50.118;9.900;2022-12-11T11:51:53;14.65;;;5.78;;
17365;SDS011;8800;50.118;9.900;2022-12-11T11:54:23;12.68;;;5.60;;
17365;SDS011;8800;50.118;9.900;2022-12-11T11:56:50;11.32;;;5.03;;
17365;SDS011;8800;50.118;9.900;2022-12-11T11:59:20;11.75;;;4.65;;
17365;SDS011;8800;50.118;9.900;2022-12-11T12:01:48;15.98;;;5.68;;
17365;SDS011;8800;50.118;9.900;2022-12-11T12:04:17;10.63;;;5.13;;
17365;SDS011;8800;50.118;9.900;2022-12-11T12:06:49;9.70;;;4.60;;
17365;SDS011;8800;50.118;9.900;2022-12-11T12:09:24;14.05;;;5.57;;
17365;SDS011;8800;50.118;9.900;2022-12-11T12:11:57;16.90;;;6.28;;
17365;SDS011;8800;50.118;9.900;2022-12-11T12:14:25;13.20;;;6.07;;
17365;SDS011;8800;50.118;9.900;2022-12-11T12:16:57;16.33;;;6.85;;
17365;SDS011;8800;50.118;9.900;2022-12-11T12:19:31;14.52;;;6.78;;
17365;SDS011;8800;50.118;9.900;2022-12-11T12:22:02;10.23;;;4.35;;
17365;SDS011;8800;50.118;9.900;2022-12-11T12:24:32;13.55;;;5.82;;
17365;SDS011;8800;50.118;9.900;2022-12-11T12:27:12;10.90;;;4.55;;
17365;SDS011;8800;50.118;9.900;2022-12-11T12:29:43;23.10;;;9.55;;
17365;SDS011;8800;50.118;9.900;2022-12-11T12:32:15;14.25;;;6.20;;
17365;SDS011;8800;50.118;9.900;2022-12-11T12:35:00;24.63;;;9.38;;
17365;SDS011;8800;50.118;9.900;2022-12-11T12:37:33;14.77;;;6.93;;
17365;SDS011;8800;50.118;9.900;2022-12-11T12:40:10;33.85;;;13.98;;
17365;SDS011;8800;50.118;9.900;2022-12-11T12:42:41;14.95;;;6.20;;
17365;SDS011;8800;50.118;9.900;2022-12-11T12:45:15;13.10;;;6.13;;
17365;SDS011;8800;50.118;9.900;2022-12-11T12:47:43;13.32;;;5.57;;
17365;SDS011;8800;50.118;9.900;2022-12-11T12:50:14;13.65;;;6.00;;
17365;SDS011;8800;50.118;9.900;2022-12-11T12:52:41;14.57;;;6.43;;
17365;SDS011;8800;50.118;9.900;2022-12-11T12:55:15;11.43;;;5.13;;
17365;SDS011;8800;50.118;9.900;2022-12-11T12:57:47;11.25;;;4.50;;
17365;SDS011;8800;50.118;9.900;2022-12-11T13:00:24;15.35;;;5.85;;
17365;SDS011;8800;50.118;9.900;2022-12-11T13:02:52;10.07;;;4.18;;
17365;SDS011;8800;50.118;9.900;2022-12-11T13:05:22;12.43;;;5.05;;
17365;SDS011;8800;50.118;9.900;2022-12-11T13:07:49;35.58;;;9.40;;
17365;SDS011;8800;50.118;9.900;2022-12-11T13:10:24;30.98;;;9.80;;
17365;SDS011;8800;50.118;9.900;2022-12-11T13:12:51;14.65;;;5.65;;
17365;SDS011;8800;50.118;9.900;2022-12-11T13:15:25;18.02;;;6.95;;
17365;SDS011;8800;50.118;9.900;2022-12-11T13:17:53;19.58;;;7.45;;
17365;SDS011;8800;50.118;9.900;2022-12-11T13:20:21;32.28;;;11.32;;
17365;SDS011;8800;50.118;9.900;2022-12-11T13:22:51;16.10;;;6.50;;
17365;SDS011;8800;50.118;9.900;2022-12-11T13:25:20;17.80;;;6.50;;
17365;SDS011;8800;50.118;9.900;2022-12-11T13:27:47;22.17;;;8.60;;
17365;SDS011;8800;50.118;9.900;2022-12-11T13:30:21;24.40;;;9.75;;
17365;SDS011;8800;50.118;9.900;2022-12-11T13:32:50;25.38;;;8.05;;
17365;SDS011;8800;50.118;9.900;2022-12-11T13:35:20;12.45;;;5.00;;
17365;SDS011;8800;50.118;9.900;2022-12-11T13:37:48;16.50;;;7.25;;
17365;SDS011;8800;50.118;9.900;2022-12-11T13:40:17;15.52;;;6.65;;
17365;SDS011;8800;50.118;9.900;2022-12-11T13:42:47;11.95;;;6.38;;
17365;SDS011;8800;50.118;9.900;2022-12-11T13:45:17;17.13;;;6.45;;
17365;SDS011;8800;50.118;9.900;2022-12-11T13:47:44;20.25;;;7.28;;
17365;SDS011;8800;50.118;9.900;2022-12-11T13:50:12;37.67;;;15.05;;
17365;SDS011;8800;50.118;9.900;2022-12-11T13:52:39;30.23;;;10.52;;
17365;SDS011;8800;50.118;9.900;2022-12-11T13:55:15;31.50;;;12.13;;
17365;SDS011;8800;50.118;9.900;2022-12-11T13:57:44;30.10;;;11.40;;
17365;SDS011;8800;50.118;9.900;2022-12-11T14:00:17;42.90;;;14.52;;
17365;SDS011;8800;50.118;9.900;2022-12-11T14:02:44;52.30;;;17.10;;
17365;SDS011;8800;50.118;9.900;2022-12-11T14:05:11;28.83;;;11.18;;
17365;SDS011;8800;50.118;9.900;2022-12-11T14:07:39;20.88;;;8.60;;
17365;SDS011;8800;50.118;9.900;2022-12-11T14:10:08;23.20;;;9.10;;
17365;SDS011;8800;50.118;9.900;2022-12-11T14:12:40;20.02;;;7.88;;
17365;SDS011;8800;50.118;9.900;2022-12-11T14:15:12;20.98;;;7.45;;
17365;SDS011;8800;50.118;9.900;2022-12-11T14:17:40;19.00;;;7.38;;
17365;SDS011;8800;50.118;9.900;2022-12-11T14:20:13;27.25;;;9.70;;
17365;SDS011;8800;50.118;9.900;2022-12-11T14:22:41;21.05;;;7.70;;
17365;SDS011;8800;50.118;9.900;2022-12-11T14:25:15;19.38;;;7.63;;
17365;SDS011;8800;50.118;9.900;2022-12-11T14:27:45;21.08;;;8.20;;
17365;SDS011;8800;50.118;9.900;2022-12-11T14:30:18;22.25;;;9.13;;
17365;SDS011;8800;50.118;9.900;2022-12-11T14:32:45;14.25;;;6.53;;
17365;SDS011;8800;50.118;9.900;2022-12-11T14:35:15;23.38;;;7.97;;
17365;SDS011;8800;50.118;9.900;2022-12-11T14:37:43;15.13;;;6.50;;
17365;SDS011;8800;50.118;9.900;2022-12-11T14:40:13;23.77;;;9.57;;
17365;SDS011;8800;50.118;9.900;2022-12-11T14:42:42;62.63;;;15.27;;
17365;SDS011;8800;50.118;9.900;2022-12-11T14:45:11;17.35;;;7.38;;
17365;SDS011;8800;50.118;9.900;2022-12-11T14:47:41;26.48;;;10.07;;
17365;SDS011;8800;50.118;9.900;2022-12-11T14:50:10;22.98;;;9.23;;
17365;SDS011;8800;50.118;9.900;2022-12-11T14:52:40;25.00;;;9.60;;
17365;SDS011;8800;50.118;9.900;2022-12-11T14:55:07;26.17;;;10.15;;
17365;SDS011;8800;50.118;9.900;2022-12-11T14:57:38;15.80;;;6.63;;
17365;SDS011;8800;50.118;9.900;2022-12-11T15:00:06;20.90;;;7.97;;